Time;durP1;ratioP1;P1;durP2;ratioP2;P2;SDS_P1;SDS_P2;PMS_P1;PMS_P2;Temp;Humidity;BMP_temperature;BMP_pressure;BME280_temperature;BME280_humidity;BME280_pressure;Samples;Min_cycle;Max_cycle;Signal;HPM_P1;HPM_P2
2022/12/03 00:00:48;;;;;;;;;;;;;;;;;;5029649;28;19917;-66
2022/12/03 00:03:14;;;;;;;;;;;;;;;;;;5029228;28;20000;-67
2022/12/03 00:05:40;;;;;;;;;;;;;;;;;;5029356;28;20309;-67
2022/12/03 00:08:05;;;;;;;;;;;;;;;;;;5023527;28;19940;-66
2022/12/03 00:10:31;;;;;;;;;;;;;;;;;;5011679;28;20408;-67
2022/12/03 00:12:57;;;;;;;;;;;;;;;;;;5029760;28;19913;-67
2022/12/03 00:15:23;;;;;;;;;;;;;;;;;;5028296;28;20321;-67
2022/12/03 00:17:49;;;;;;;;;;;;;;;;;;5010457;28;19922;-66
2022/12/03 00:20:15;;;;;;;;;;;;;;;;;;5010067;28;20358;-66
2022/12/03 00:22:41;;;;;;;;;;;;;;;;;;5013608;28;19953;-67
2022/12/03 00:25:06;;;;;;;;;;;;;;;;;;5009957;28;19913;-67
2022/12/03 00:27:32;;;;;;;;;;;;;;;;;;5009984;28;19975;-67
2022/12/03 00:29:58;;;;;;;;;;;;;;;;;;5010232;28;19992;-67
2022/12/03 00:32:24;;;;;;;;;;;;;;;;;;5010206;28;19917;-67
2022/12/03 00:34:50;;;;;;;;;;;;;;;;;;5022023;28;19913;-68
2022/12/03 00:37:16;;;;;;;;;;;;;;;;;;5024020;28;19914;-68
2022/12/03 00:39:42;;;;;;;;;;;;;;;;;;5014779;28;20369;-67
2022/12/03 00:42:08;;;;;;;;;;;;;;;;;;5029013;28;19956;-66
2022/12/03 00:44:34;;;;;;;;;;;;;;;;;;5018314;28;19913;-67
2022/12/03 00:46:59;;;;;;;;;;;;;;;;;;5013776;28;19916;-68
2022/12/03 00:49:25;;;;;;;;;;;;;;;;;;5016188;28;19910;-66
2022/12/03 00:51:51;;;;;;;;;;;;;;;;;;5029146;28;19962;-66
2022/12/03 00:54:17;;;;;;;;;;;;;;;;;;5028615;28;19921;-67
2022/12/03 00:56:43;;;;;;;;;;;;;;;;;;5028631;28;19921;-67
2022/12/03 00:59:09;;;;;;;;;;;;;;;;;;5028745;28;19928;-68
2022/12/03 01:01:35;;;;;;;;;;;;;;;;;;5028795;28;20050;-67
2022/12/03 01:04:01;;;;;;;;;;;;;;;;;;5020388;28;20028;-67
2022/12/03 01:06:26;;;;;;;;;;;;;;;;;;5018029;28;19921;-68
2022/12/03 01:08:52;;;;;;;;;;;;;;;;;;5016035;28;20393;-68
2022/12/03 01:11:36;;;;;;;;;;;;;;;;;;5009905;28;19947;-67
2022/12/03 01:14:02;;;;;;;;;;;;;;;;;;5013475;28;20385;-68
2022/12/03 01:16:28;;;;;;;;;;;;;;;;;;5028929;28;19924;-67
2022/12/03 01:18:54;;;;;;;;;;;;;;;;;;5028236;28;19930;-67
2022/12/03 01:21:20;;;;;;;;;;;;;;;;;;5028876;28;19913;-67
2022/12/03 01:23:46;;;;;;;;;;;;;;;;;;5028783;28;19913;-67
2022/12/03 01:26:12;;;;;;;;;;;;;;;;;;5028992;28;19913;-67
2022/12/03 01:28:38;;;;;;;;;;;;;;;;;;5028341;28;20285;-67
2022/12/03 01:33:48;;;;;;;;;;;;;;;;;;5031323;28;19919;-67
2022/12/03 01:36:14;;;;;;;;;;;;;;;;;;5015135;28;19913;-67
2022/12/03 01:38:40;;;;;;;;;;;;;;;;;;5013219;28;19921;-67
2022/12/03 01:41:06;;;;;;;;;;;;;;;;;;5023532;28;20810;-67
2022/12/03 01:43:32;;;;;;;;;;;;;;;;;;5016161;28;19913;-67
2022/12/03 01:45:57;;;;;;;;;;;;;;;;;;5013113;28;20259;-68
2022/12/03 01:48:23;;;;;;;;;;;;;;;;;;5013163;28;19996;-67
2022/12/03 01:50:49;;;;;;;;;;;;;;;;;;5028251;28;20477;-67
2022/12/03 01:53:17;;;;;;;;;;;;;;;;;;5032130;28;19917;-67
2022/12/03 01:55:43;;;;;;;;;;;;;;;;;;5029513;28;19917;-67
2022/12/03 01:58:08;;;;;;;;;;;;;;;;;;5013432;28;20298;-68
2022/12/03 02:00:34;;;;;;;;;;;;;;;;;;5013341;28;19963;-66
2022/12/03 02:03:00;;;;;;;;;;;;;;;;;;5012822;28;19921;-68
2022/12/03 02:05:26;;;;;;;;;;;;;;;;;;5012639;28;19929;-68
2022/12/03 02:07:52;;;;;;;;;;;;;;;;;;5022550;28;19949;-67
2022/12/03 02:10:18;;;;;;;;;;;;;;;;;;5031163;28;19913;-67
2022/12/03 02:12:44;;;;;;;;;;;;;;;;;;5016869;28;19909;-66
2022/12/03 02:15:10;;;;;;;;;;;;;;;;;;5012602;28;19910;-67
2022/12/03 02:17:36;;;;;;;;;;;;;;;;;;5018607;28;19979;-66
2022/12/03 02:20:02;;;;;;;;;;;;;;;;;;5019020;28;20021;-68
2022/12/03 02:22:28;;;;;;;;;;;;;;;;;;5012886;28;20279;-67
2022/12/03 02:24:54;;;;;;;;;;;;;;;;;;5013019;28;19939;-67
2022/12/03 02:27:20;;;;;;;;;;;;;;;;;;5017635;28;20348;-68
2022/12/03 02:29:46;;;;;;;;;;;;;;;;;;5013336;28;19916;-67
2022/12/03 02:32:11;;;;;;;;;;;;;;;;;;5013083;28;19955;-68
2022/12/03 02:34:37;;;;;;;;;;;;;;;;;;5030155;28;20373;-67
2022/12/03 02:37:03;;;;;;;;;;;;;;;;;;5031532;28;19916;-65
2022/12/03 02:39:29;;;;;;;;;;;;;;;;;;5031021;28;19978;-67
2022/12/03 02:44:40;;;;;;;;;;;;;;;;;;5012453;28;19967;-67
2022/12/03 02:47:06;;;;;;;;;;;;;;;;;;5025079;28;20312;-67
2022/12/03 02:49:31;;;;;;;;;;;;;;;;;;5031143;28;19913;-67
2022/12/03 02:51:57;;;;;;;;;;;;;;;;;;5025538;28;19920;-67
2022/12/03 02:54:23;;;;;;;;;;;;;;;;;;5012484;28;19967;-68
2022/12/03 02:56:49;;;;;;;;;;;;;;;;;;5011852;28;20389;-68
2022/12/03 02:59:15;;;;;;;;;;;;;;;;;;5011875;28;19921;-68
2022/12/03 03:01:41;;;;;;;;;;;;;;;;;;5012011;28;20671;-67
2022/12/03 03:04:07;;;;;;;;;;;;;;;;;;5014648;28;19917;-67
2022/12/03 03:06:33;;;;;;;;;;;;;;;;;;5014145;28;19933;-66
2022/12/03 03:08:59;;;;;;;;;;;;;;;;;;5013643;28;20564;-67
2022/12/03 03:11:25;;;;;;;;;;;;;;;;;;5015366;28;20400;-67
2022/12/03 03:13:50;;;;;;;;;;;;;;;;;;5030534;28;19957;-66
2022/12/03 03:16:16;;;;;;;;;;;;;;;;;;5030862;28;19917;-67
2022/12/03 03:18:42;;;;;;;;;;;;;;;;;;5030563;28;19921;-67
2022/12/03 03:21:08;;;;;;;;;;;;;;;;;;5030670;28;19936;-67
2022/12/03 03:23:34;;;;;;;;;;;;;;;;;;5030618;28;20286;-67
2022/12/03 03:26:00;;;;;;;;;;;;;;;;;;5030177;28;20002;-67
2022/12/03 03:28:26;;;;;;;;;;;;;;;;;;5030683;28;20386;-67
2022/12/03 03:30:52;;;;;;;;;;;;;;;;;;5030000;28;19924;-67
2022/12/03 03:33:18;;;;;;;;;;;;;;;;;;5029960;28;20003;-67
2022/12/03 03:35:46;;;;;;;;;;;;;;;;;;5029971;28;19909;-67
2022/12/03 03:38:12;;;;;;;;;;;;;;;;;;5030661;28;19921;-67
2022/12/03 03:40:38;;;;;;;;;;;;;;;;;;5030093;28;19919;-67
2022/12/03 03:43:04;;;;;;;;;;;;;;;;;;5016651;28;20365;-67
2022/12/03 03:45:30;;;;;;;;;;;;;;;;;;5011590;28;19964;-67
2022/12/03 03:47:56;;;;;;;;;;;;;;;;;;5010781;28;20371;-67
2022/12/03 03:50:22;;;;;;;;;;;;;;;;;;5029995;28;19921;-66
2022/12/03 03:52:48;;;;;;;;;;;;;;;;;;5029757;28;19909;-65
2022/12/03 03:55:13;;;;;;;;;;;;;;;;;;5028666;28;19917;-66
2022/12/03 03:57:39;;;;;;;;;;;;;;;;;;5029647;28;19917;-65
2022/12/03 04:00:05;;;;;;;;;;;;;;;;;;5029337;28;19913;-65
2022/12/03 04:02:31;;;;;;;;;;;;;;;;;;5029789;28;19999;-66
2022/12/03 04:04:57;;;;;;;;;;;;;;;;;;5029101;28;20389;-65
2022/12/03 04:07:23;;;;;;;;;;;;;;;;;;5025516;28;19913;-66
2022/12/03 04:09:49;;;;;;;;;;;;;;;;;;5023581;28;19921;-66
2022/12/03 04:14:59;;;;;;;;;;;;;;;;;;5029432;28;19984;-66
2022/12/03 04:17:25;;;;;;;;;;;;;;;;;;5017196;28;20377;-66
2022/12/03 04:19:51;;;;;;;;;;;;;;;;;;5028912;28;19916;-66
2022/12/03 04:30:31;;;;;;;;;;;;;;;;;;5028785;28;19920;-67
2022/12/03 04:35:41;;;;;;;;;;;;;;;;;;5015980;28;19966;-66
2022/12/03 04:38:07;;;;;;;;;;;;;;;;;;5010523;28;20305;-67
2022/12/03 04:44:31;;;;;;;;;;;;;;;;;;4986988;28;19914;-67
2022/12/03 04:46:21;;;;;;;;;;;;;;;;;;4987404;28;19944;-67
2022/12/03 04:48:46;;;;;;;;;;;;;;;;;;4987246;28;19914;-67
2022/12/03 04:51:12;;;;;;;;;;;;;;;;;;4987244;28;19956;-67
2022/12/03 04:53:38;;;;;;;;;;;;;;;;;;4987191;28;20268;-66
2022/12/03 04:56:04;;;;;;;;;;;;;;;;;;4987221;28;20465;-68
2022/12/03 04:58:30;;;;;;;;;;;;;;;;;;4986893;28;19928;-67
2022/12/03 05:00:56;;;;;;;;;;;;;;;;;;4987198;28;20441;-67
2022/12/03 05:03:22;;;;;;;;;;;;;;;;;;4987905;28;19924;-68
2022/12/03 05:05:48;;;;;;;;;;;;;;;;;;4987350;28;20744;-68
2022/12/03 05:08:13;;;;;;;;;;;;;;;;;;4997359;28;20007;-68
2022/12/03 05:10:39;;;;;;;;;;;;;;;;;;4991157;28;19914;-68
2022/12/03 05:13:05;;;;;;;;;;;;;;;;;;4983891;28;19917;-67
2022/12/03 05:15:31;;;;;;;;;;;;;;;;;;4991116;28;19913;-67
2022/12/03 05:17:57;;;;;;;;;;;;;;;;;;5016938;28;19917;-66
2022/12/03 05:20:41;;;;;;;;;;;;;;;;;;5032497;28;20059;-68
2022/12/03 05:23:07;;;;;;;;;;;;;;;;;;5032601;28;19952;-67
2022/12/03 05:25:33;;;;;;;;;;;;;;;;;;5014169;28;19975;-67
2022/12/03 05:27:59;;;;;;;;;;;;;;;;;;5013621;28;20378;-68
2022/12/03 05:30:25;;;;;;;;;;;;;;;;;;5018687;28;19909;-68
2022/12/03 05:32:51;;;;;;;;;;;;;;;;;;5032348;28;20386;-68
2022/12/03 05:35:16;;;;;;;;;;;;;;;;;;5032961;28;19913;-68
2022/12/03 05:37:42;;;;;;;;;;;;;;;;;;5032305;28;20012;-68
2022/12/03 05:40:08;;;;;;;;;;;;;;;;;;5032134;28;20406;-68
2022/12/03 05:42:52;;;;;;;;;;;;;;;;;;5031917;28;19913;-67
2022/12/03 05:45:18;;;;;;;;;;;;;;;;;;5032492;28;19932;-68
2022/12/03 05:47:44;;;;;;;;;;;;;;;;;;5032461;28;20641;-68
2022/12/03 05:50:10;;;;;;;;;;;;;;;;;;5031894;28;19920;-67
2022/12/03 05:52:36;;;;;;;;;;;;;;;;;;5031877;28;19954;-67
2022/12/03 05:55:02;;;;;;;;;;;;;;;;;;5031797;28;19932;-68
2022/12/03 05:57:28;;;;;;;;;;;;;;;;;;5031618;28;19917;-68
2022/12/03 05:59:53;;;;;;;;;;;;;;;;;;5032332;28;19913;-68
2022/12/03 06:02:19;;;;;;;;;;;;;;;;;;5031909;28;19909;-64
2022/12/03 06:04:45;;;;;;;;;;;;;;;;;;5031204;28;20027;-65
2022/12/03 06:07:11;;;;;;;;;;;;;;;;;;5021901;28;19927;-67
2022/12/03 06:09:37;;;;;;;;;;;;;;;;;;5021074;28;19992;-68
2022/12/03 06:12:05;;;;;;;;;;;;;;;;;;5012457;28;19963;-68
2022/12/03 06:14:33;;;;;;;;;;;;;;;;;;5022154;28;19920;-67
2022/12/03 06:16:59;;;;;;;;;;;;;;;;;;5031842;28;19920;-68
2022/12/03 06:19:25;;;;;;;;;;;;;;;;;;5031248;28;19917;-66
2022/12/03 06:21:51;;;;;;;;;;;;;;;;;;5031539;28;20366;-65
2022/12/03 06:24:16;;;;;;;;;;;;;;;;;;5022282;28;19952;-65
2022/12/03 06:26:42;;;;;;;;;;;;;;;;;;5016864;28;19971;-65
2022/12/03 06:29:08;;;;;;;;;;;;;;;;;;5012375;28;19914;-65
2022/12/03 06:31:34;;;;;;;;;;;;;;;;;;5017626;28;19960;-65
2022/12/03 06:34:00;;;;;;;;;;;;;;;;;;5012659;28;19909;-67
2022/12/03 06:36:26;;;;;;;;;;;;;;;;;;5016833;28;19941;-68
2022/12/03 06:38:52;;;;;;;;;;;;;;;;;;5026114;28;19951;-67
2022/12/03 06:41:18;;;;;;;;;;;;;;;;;;5030893;28;19913;-65
2022/12/03 06:43:44;;;;;;;;;;;;;;;;;;5031228;28;19913;-66
2022/12/03 06:46:10;;;;;;;;;;;;;;;;;;5024660;28;19914;-65
2022/12/03 06:48:36;;;;;;;;;;;;;;;;;;5012140;28;20362;-67
2022/12/03 06:51:02;;;;;;;;;;;;;;;;;;5011768;28;20016;-67
2022/12/03 06:53:27;;;;;;;;;;;;;;;;;;5011868;28;19916;-67
2022/12/03 06:55:53;;;;;;;;;;;;;;;;;;5015017;28;19913;-64
2022/12/03 06:58:19;;;;;;;;;;;;;;;;;;5011598;28;19964;-68
2022/12/03 07:00:45;;;;;;;;;;;;;;;;;;5011786;28;19913;-67
2022/12/03 07:03:11;;;;;;;;;;;;;;;;;;5016933;28;19965;-67
2022/12/03 07:05:37;;;;;;;;;;;;;;;;;;5030430;28;20027;-64
2022/12/03 07:08:03;;;;;;;;;;;;;;;;;;5031568;28;19920;-64
2022/12/03 07:10:29;;;;;;;;;;;;;;;;;;5010321;28;19914;-67
2022/12/03 07:12:54;;;;;;;;;;;;;;;;;;5017651;28;19917;-70
2022/12/03 07:15:20;;;;;;;;;;;;;;;;;;5014545;28;19945;-71
2022/12/03 07:17:46;;;;;;;;;;;;;;;;;;5011388;28;19917;-69
2022/12/03 07:20:12;;;;;;;;;;;;;;;;;;5023315;28;20059;-69
2022/12/03 07:22:38;;;;;;;;;;;;;;;;;;5016418;28;19909;-69
2022/12/03 07:25:04;;;;;;;;;;;;;;;;;;5020331;28;19914;-69
2022/12/03 07:27:30;;;;;;;;;;;;;;;;;;5019132;28;20020;-72
2022/12/03 07:29:56;;;;;;;;;;;;;;;;;;5027684;28;19913;-71
2022/12/03 07:32:21;;;;;;;;;;;;;;;;;;5028405;28;19913;-72
2022/12/03 07:34:47;;;;;;;;;;;;;;;;;;5029178;28;20008;-72
2022/12/03 07:37:13;;;;;;;;;;;;;;;;;;5029709;28;19913;-71
2022/12/03 07:39:39;;;;;;;;;;;;;;;;;;5019790;28;19921;-74
2022/12/03 07:42:05;;;;;;;;;;;;;;;;;;5020322;28;19917;-76
2022/12/03 07:44:31;;;;;;;;;;;;;;;;;;5018177;28;19964;-72
2022/12/03 07:46:57;;;;;;;;;;;;;;;;;;5015703;28;19913;-73
2022/12/03 07:49:23;;;;;;;;;;;;;;;;;;5015973;28;19917;-74
2022/12/03 07:51:53;;;;;;;;;;;;;;;;;;5018793;28;19918;-73
2022/12/03 07:54:19;;;;;;;;;;;;;;;;;;5021527;28;19932;-71
2022/12/03 07:56:46;;;;;;;;;;;;;;;;;;5016963;28;19917;-73
2022/12/03 07:59:12;;;;;;;;;;;;;;;;;;5022744;28;19932;-72
2022/12/03 08:01:38;;;;;;;;;;;;;;;;;;5015629;28;19918;-74
2022/12/03 08:04:04;;;;;;;;;;;;;;;;;;5018002;28;19980;-73
2022/12/03 08:06:30;;;;;;;;;;;;;;;;;;5017791;28;20012;-73
2022/12/03 08:08:56;;;;;;;;;;;;;;;;;;5022325;28;20313;-73
2022/12/03 08:11:22;;;;;;;;;;;;;;;;;;5015193;28;19947;-73
2022/12/03 08:13:48;;;;;;;;;;;;;;;;;;5022696;28;19917;-73
2022/12/03 08:16:14;;;;;;;;;;;;;;;;;;5022893;28;20725;-74
2022/12/03 08:18:40;;;;;;;;;;;;;;;;;;5014286;28;19932;-70
2022/12/03 08:21:06;;;;;;;;;;;;;;;;;;5017517;28;19996;-71
2022/12/03 08:23:32;;;;;;;;;;;;;;;;;;5012899;28;19917;-74
2022/12/03 08:26:00;;;;;;;;;;;;;;;;;;5017317;28;20408;-74
2022/12/03 08:28:26;;;;;;;;;;;;;;;;;;5016817;28;20050;-74
2022/12/03 08:30:52;;;;;;;;;;;;;;;;;;5019571;28;19913;-72
2022/12/03 08:33:18;;;;;;;;;;;;;;;;;;5015127;28;19917;-73
2022/12/03 08:35:44;;;;;;;;;;;;;;;;;;5022277;28;19979;-70
2022/12/03 08:38:10;;;;;;;;;;;;;;;;;;5013671;28;20036;-71
2022/12/03 08:40:36;;;;;;;;;;;;;;;;;;5017237;28;20584;-74
2022/12/03 08:43:02;;;;;;;;;;;;;;;;;;5015090;28;19917;-74
2022/12/03 08:45:28;;;;;;;;;;;;;;;;;;5014526;28;20016;-72
2022/12/03 08:47:53;;;;;;;;;;;;;;;;;;5015619;28;20441;-74
2022/12/03 08:50:20;;;;;;;;;;;;;;;;;;5014748;28;19979;-73
2022/12/03 08:52:45;;;;;;;;;;;;;;;;;;5019453;28;19919;-71
2022/12/03 08:55:11;;;;;;;;;;;;;;;;;;5017579;28;20301;-70
2022/12/03 08:57:37;;;;;;;;;;;;;;;;;;5016385;28;19948;-71
2022/12/03 09:00:03;;;;;;;;;;;;;;;;;;5017390;28;19917;-73
2022/12/03 09:02:29;;;;;;;;;;;;;;;;;;5017103;28;19919;-72
2022/12/03 09:04:55;;;;;;;;;;;;;;;;;;5013799;28;19979;-76
2022/12/03 09:07:21;;;;;;;;;;;;;;;;;;5016313;28;19953;-75
2022/12/03 09:09:47;;;;;;;;;;;;;;;;;;5017148;28;19959;-73
2022/12/03 09:12:13;;;;;;;;;;;;;;;;;;5015817;28;20094;-74
2022/12/03 09:14:39;;;;;;;;;;;;;;;;;;5014705;28;19918;-73
2022/12/03 09:17:05;;;;;;;;;;;;;;;;;;5017662;28;19914;-75
2022/12/03 09:19:31;;;;;;;;;;;;;;;;;;5016493;28;20623;-73
2022/12/03 09:21:56;;;;;;;;;;;;;;;;;;5015982;28;19923;-73
2022/12/03 09:24:22;;;;;;;;;;;;;;;;;;5015125;28;19940;-73
2022/12/03 09:26:48;;;;;;;;;;;;;;;;;;5015246;28;19924;-74
2022/12/03 09:29:14;;;;;;;;;;;;;;;;;;5013844;28;19921;-74
2022/12/03 09:31:40;;;;;;;;;;;;;;;;;;5013807;28;20018;-73
2022/12/03 09:34:06;;;;;;;;;;;;;;;;;;5015891;28;19979;-72
2022/12/03 09:36:32;;;;;;;;;;;;;;;;;;5017464;28;19914;-72
2022/12/03 09:38:58;;;;;;;;;;;;;;;;;;5018513;28;19948;-71
2022/12/03 09:41:24;;;;;;;;;;;;;;;;;;5017627;28;20397;-71
2022/12/03 09:43:50;;;;;;;;;;;;;;;;;;5022607;28;20024;-71
2022/12/03 09:46:16;;;;;;;;;;;;;;;;;;5021294;28;19921;-69
2022/12/03 09:48:42;;;;;;;;;;;;;;;;;;5015399;28;20264;-69
2022/12/03 09:51:08;;;;;;;;;;;;;;;;;;5018272;28;19914;-69
2022/12/03 09:53:33;;;;;;;;;;;;;;;;;;5022354;28;20686;-69
2022/12/03 09:55:59;;;;;;;;;;;;;;;;;;5025605;28;19917;-69
2022/12/03 09:58:25;;;;;;;;;;;;;;;;;;5024338;28;19921;-69
2022/12/03 10:00:51;;;;;;;;;;;;;;;;;;5023395;28;19917;-69
2022/12/03 10:03:17;;;;;;;;;;;;;;;;;;5024410;28;19913;-68
2022/12/03 10:05:43;;;;;;;;;;;;;;;;;;5023922;28;19925;-67
2022/12/03 10:08:09;;;;;;;;;;;;;;;;;;5027806;28;20402;-67
2022/12/03 10:10:35;;;;;;;;;;;;;;;;;;5018579;28;19917;-68
2022/12/03 10:13:01;;;;;;;;;;;;;;;;;;5018517;28;20035;-70
2022/12/03 10:15:26;;;;;;;;;;;;;;;;;;5017577;28;19917;-71
2022/12/03 10:17:53;;;;;;;;;;;;;;;;;;5017396;28;20390;-71
2022/12/03 10:20:19;;;;;;;;;;;;;;;;;;5019524;28;20083;-70
2022/12/03 10:22:47;;;;;;;;;;;;;;;;;;5018979;28;20343;-70
2022/12/03 10:25:13;;;;;;;;;;;;;;;;;;5020001;28;19974;-72
2022/12/03 10:27:39;;;;;;;;;;;;;;;;;;5015314;28;20370;-74
2022/12/03 10:30:05;;;;;;;;;;;;;;;;;;5022607;28;19913;-73
2022/12/03 10:32:31;;;;;;;;;;;;;;;;;;5016145;28;19917;-72
2022/12/03 10:34:57;;;;;;;;;;;;;;;;;;5019216;28;19917;-72
2022/12/03 10:37:23;;;;;;;;;;;;;;;;;;5017537;28;19924;-73
2022/12/03 10:39:49;;;;;;;;;;;;;;;;;;5018659;28;19926;-71
2022/12/03 10:42:15;;;;;;;;;;;;;;;;;;5018801;28;19918;-70
2022/12/03 10:44:41;;;;;;;;;;;;;;;;;;5021908;28;19917;-73
2022/12/03 10:47:07;;;;;;;;;;;;;;;;;;5022933;28;19917;-72
2022/12/03 10:49:33;;;;;;;;;;;;;;;;;;5019396;28;19917;-72
2022/12/03 10:51:59;;;;;;;;;;;;;;;;;;5019835;28;19917;-74
2022/12/03 10:54:25;;;;;;;;;;;;;;;;;;5015651;28;19917;-73
2022/12/03 10:56:51;;;;;;;;;;;;;;;;;;5016423;28;20266;-72
2022/12/03 10:59:17;;;;;;;;;;;;;;;;;;5016934;28;19932;-72
2022/12/03 11:01:43;;;;;;;;;;;;;;;;;;5020756;28;20309;-74
2022/12/03 11:04:09;;;;;;;;;;;;;;;;;;5021482;28;20064;-74
2022/12/03 11:06:34;;;;;;;;;;;;;;;;;;5017563;28;19925;-73
2022/12/03 11:09:03;;;;;;;;;;;;;;;;;;5018874;28;19917;-72
2022/12/03 11:11:29;;;;;;;;;;;;;;;;;;5020736;28;20006;-75
2022/12/03 11:13:55;;;;;;;;;;;;;;;;;;5020851;28;20413;-73
2022/12/03 11:16:21;;;;;;;;;;;;;;;;;;5018071;28;19924;-73
2022/12/03 11:18:47;;;;;;;;;;;;;;;;;;5017414;28;19979;-72
2022/12/03 11:21:13;;;;;;;;;;;;;;;;;;5016301;28;20011;-72
2022/12/03 11:23:38;;;;;;;;;;;;;;;;;;5015069;28;19917;-72
2022/12/03 11:26:04;;;;;;;;;;;;;;;;;;5021964;28;19921;-72
2022/12/03 11:28:30;;;;;;;;;;;;;;;;;;5020905;28;19920;-72
2022/12/03 11:30:57;;;;;;;;;;;;;;;;;;5018056;28;19943;-72
2022/12/03 11:33:23;;;;;;;;;;;;;;;;;;5015223;28;19971;-72
2022/12/03 11:35:48;;;;;;;;;;;;;;;;;;5016727;28;19917;-71
2022/12/03 11:38:14;;;;;;;;;;;;;;;;;;5017532;28;20373;-70
2022/12/03 11:40:40;;;;;;;;;;;;;;;;;;5017297;28;19948;-70
2022/12/03 11:43:06;;;;;;;;;;;;;;;;;;5014214;28;19968;-70
2022/12/03 11:45:32;;;;;;;;;;;;;;;;;;5014719;28;20043;-71
2022/12/03 11:47:58;;;;;;;;;;;;;;;;;;5019730;28;19953;-71
2022/12/03 11:50:24;;;;;;;;;;;;;;;;;;5015143;28;19960;-70
2022/12/03 11:52:50;;;;;;;;;;;;;;;;;;5016118;28;19917;-66
2022/12/03 11:55:16;;;;;;;;;;;;;;;;;;5015348;28;19921;-70
2022/12/03 11:57:42;;;;;;;;;;;;;;;;;;5018468;28;19964;-70
2022/12/03 12:00:08;;;;;;;;;;;;;;;;;;5018118;28;20344;-71
2022/12/03 12:02:34;;;;;;;;;;;;;;;;;;5016826;28;20833;-71
2022/12/03 12:05:00;;;;;;;;;;;;;;;;;;5013270;28;20793;-70
2022/12/03 12:07:25;;;;;;;;;;;;;;;;;;5021078;28;19970;-71
2022/12/03 12:09:51;;;;;;;;;;;;;;;;;;5018623;28;20012;-71
2022/12/03 12:12:17;;;;;;;;;;;;;;;;;;5017274;28;19917;-72
2022/12/03 12:14:43;;;;;;;;;;;;;;;;;;5015471;28;19944;-72
2022/12/03 12:17:09;;;;;;;;;;;;;;;;;;5015232;28;20271;-72
2022/12/03 12:19:35;;;;;;;;;;;;;;;;;;5018565;28;19967;-73
2022/12/03 12:22:01;;;;;;;;;;;;;;;;;;5015383;28;20298;-72
2022/12/03 12:24:27;;;;;;;;;;;;;;;;;;5016720;28;20370;-72
2022/12/03 12:26:52;;;;;;;;;;;;;;;;;;5014292;28;19917;-71
2022/12/03 12:29:18;;;;;;;;;;;;;;;;;;5014709;28;20282;-72
2022/12/03 12:31:44;;;;;;;;;;;;;;;;;;5014382;28;19921;-73
2022/12/03 12:34:10;;;;;;;;;;;;;;;;;;5017335;28;20066;-74
2022/12/03 12:36:36;;;;;;;;;;;;;;;;;;5015772;28;19921;-72
2022/12/03 12:39:02;;;;;;;;;;;;;;;;;;5019330;28;19979;-72
2022/12/03 12:41:28;;;;;;;;;;;;;;;;;;5020313;28;19917;-70
2022/12/03 12:43:54;;;;;;;;;;;;;;;;;;5017657;28;20017;-73
2022/12/03 12:46:21;;;;;;;;;;;;;;;;;;5014608;28;20390;-75
2022/12/03 12:48:47;;;;;;;;;;;;;;;;;;5016889;28;19963;-77
2022/12/03 12:51:13;;;;;;;;;;;;;;;;;;5015267;28;20314;-68
2022/12/03 12:53:39;;;;;;;;;;;;;;;;;;5016618;28;19919;-74
2022/12/03 12:56:05;;;;;;;;;;;;;;;;;;5017094;28;20420;-77
2022/12/03 12:58:31;;;;;;;;;;;;;;;;;;5013927;28;19937;-75
2022/12/03 13:00:57;;;;;;;;;;;;;;;;;;5014223;28;21302;-72
2022/12/03 13:03:22;;;;;;;;;;;;;;;;;;5018887;28;19920;-74
2022/12/03 13:05:48;;;;;;;;;;;;;;;;;;5016560;28;19980;-73
2022/12/03 13:08:14;;;;;;;;;;;;;;;;;;5020182;28;19924;-73
2022/12/03 13:10:41;;;;;;;;;;;;;;;;;;5013060;28;19917;-73
2022/12/03 13:13:07;;;;;;;;;;;;;;;;;;5013323;28;19924;-74
2022/12/03 13:15:33;;;;;;;;;;;;;;;;;;5018548;28;19932;-73
2022/12/03 13:17:59;;;;;;;;;;;;;;;;;;5013189;28;20004;-68
2022/12/03 13:20:24;;;;;;;;;;;;;;;;;;5017404;28;19917;-73
2022/12/03 13:22:50;;;;;;;;;;;;;;;;;;5012711;28;19917;-75
2022/12/03 13:25:16;;;;;;;;;;;;;;;;;;5017411;28;19917;-73
2022/12/03 13:27:42;;;;;;;;;;;;;;;;;;5010558;28;19921;-73
2022/12/03 13:30:08;;;;;;;;;;;;;;;;;;5025722;28;19917;-74
2022/12/03 13:32:34;;;;;;;;;;;;;;;;;;5015476;28;19922;-73
2022/12/03 13:35:00;;;;;;;;;;;;;;;;;;5018843;28;19918;-74
2022/12/03 13:37:26;;;;;;;;;;;;;;;;;;5019260;28;19968;-73
2022/12/03 13:39:52;;;;;;;;;;;;;;;;;;5018041;28;19926;-74
2022/12/03 13:45:03;;;;;;;;;;;;;;;;;;5019084;28;19925;-72
2022/12/03 13:47:29;;;;;;;;;;;;;;;;;;5018812;28;20297;-73
2022/12/03 13:49:55;;;;;;;;;;;;;;;;;;5018426;28;19971;-71
2022/12/03 13:52:20;;;;;;;;;;;;;;;;;;5023816;28;19936;-70
2022/12/03 13:54:46;;;;;;;;;;;;;;;;;;5019301;28;19988;-69
2022/12/03 13:57:12;;;;;;;;;;;;;;;;;;5020799;28;19914;-70
2022/12/03 13:59:39;;;;;;;;;;;;;;;;;;5014351;28;19933;-71
2022/12/03 14:02:05;;;;;;;;;;;;;;;;;;5018582;28;19943;-69
2022/12/03 14:04:31;;;;;;;;;;;;;;;;;;5017794;28;19913;-71
2022/12/03 14:06:56;;;;;;;;;;;;;;;;;;5020303;28;20133;-71
2022/12/03 14:09:22;;;;;;;;;;;;;;;;;;5019112;28;19972;-71
2022/12/03 14:14:33;;;;;;;;;;;;;;;;;;5022485;28;19975;-71
2022/12/03 14:16:59;;;;;;;;;;;;;;;;;;5017535;28;19913;-71
2022/12/03 14:19:25;;;;;;;;;;;;;;;;;;5019487;28;20576;-72
2022/12/03 14:21:50;;;;;;;;;;;;;;;;;;5016681;28;20400;-70
2022/12/03 14:24:16;;;;;;;;;;;;;;;;;;5019917;28;19920;-71
2022/12/03 14:26:42;;;;;;;;;;;;;;;;;;5016406;28;20542;-71
2022/12/03 14:29:08;;;;;;;;;;;;;;;;;;5018666;28;20048;-72
2022/12/03 14:31:34;;;;;;;;;;;;;;;;;;5017368;28;19932;-72
2022/12/03 14:34:00;;;;;;;;;;;;;;;;;;5020072;28;19917;-70
2022/12/03 14:36:26;;;;;;;;;;;;;;;;;;5017121;28;19913;-70
2022/12/03 14:38:52;;;;;;;;;;;;;;;;;;5017391;28;19921;-70
2022/12/03 14:44:02;;;;;;;;;;;;;;;;;;5021330;28;19919;-70
2022/12/03 14:46:28;;;;;;;;;;;;;;;;;;5019222;28;20008;-71
2022/12/03 14:48:54;;;;;;;;;;;;;;;;;;5017702;28;19927;-72
2022/12/03 14:51:20;;;;;;;;;;;;;;;;;;5018129;28;19940;-71
2022/12/03 14:53:46;;;;;;;;;;;;;;;;;;5020228;28;19913;-72
2022/12/03 14:56:12;;;;;;;;;;;;;;;;;;5021661;28;19918;-72
2022/12/03 14:58:38;;;;;;;;;;;;;;;;;;5015794;28;20417;-72
2022/12/03 15:01:04;;;;;;;;;;;;;;;;;;5016479;28;20444;-72
2022/12/03 15:03:30;;;;;;;;;;;;;;;;;;5019479;28;19925;-71
2022/12/03 15:05:55;;;;;;;;;;;;;;;;;;5020086;28;19921;-71
2022/12/03 15:08:21;;;;;;;;;;;;;;;;;;5016799;28;20285;-72
2022/12/03 15:10:47;;;;;;;;;;;;;;;;;;5022578;28;19964;-72
2022/12/03 15:13:13;;;;;;;;;;;;;;;;;;5016273;28;19979;-71
2022/12/03 15:15:39;;;;;;;;;;;;;;;;;;5018945;28;19914;-69
2022/12/03 15:18:05;;;;;;;;;;;;;;;;;;5017816;28;19921;-70
2022/12/03 15:20:32;;;;;;;;;;;;;;;;;;5019262;28;20461;-70
2022/12/03 15:22:57;;;;;;;;;;;;;;;;;;5017820;28;19913;-71
2022/12/03 15:25:24;;;;;;;;;;;;;;;;;;5020284;28;20418;-70
2022/12/03 15:27:50;;;;;;;;;;;;;;;;;;5018983;28;19917;-71
2022/12/03 15:30:16;;;;;;;;;;;;;;;;;;5017038;28;19964;-70
2022/12/03 15:32:42;;;;;;;;;;;;;;;;;;5016452;28;20366;-71
2022/12/03 15:35:07;;;;;;;;;;;;;;;;;;5020380;28;19918;-70
2022/12/03 15:37:33;;;;;;;;;;;;;;;;;;5019686;28;20328;-67
2022/12/03 15:39:59;;;;;;;;;;;;;;;;;;5018415;28;19933;-72
2022/12/03 15:42:26;;;;;;;;;;;;;;;;;;5018154;28;20452;-71
2022/12/03 15:44:52;;;;;;;;;;;;;;;;;;5013354;28;20270;-72
2022/12/03 15:47:18;;;;;;;;;;;;;;;;;;5022116;28;19916;-74
2022/12/03 15:49:44;;;;;;;;;;;;;;;;;;5021072;28;19917;-73
2022/12/03 15:52:10;;;;;;;;;;;;;;;;;;5017685;28;19960;-74
2022/12/03 15:54:36;;;;;;;;;;;;;;;;;;5011287;28;20409;-74
2022/12/03 15:57:02;;;;;;;;;;;;;;;;;;5016361;28;19943;-73
2022/12/03 15:59:28;;;;;;;;;;;;;;;;;;5014555;28;20501;-71
2022/12/03 16:01:54;;;;;;;;;;;;;;;;;;5015025;28;19924;-71
2022/12/03 16:04:19;;;;;;;;;;;;;;;;;;5017477;28;19968;-70
2022/12/03 16:06:45;;;;;;;;;;;;;;;;;;5016060;28;20020;-70
2022/12/03 16:09:11;;;;;;;;;;;;;;;;;;5015993;28;19936;-71
2022/12/03 16:11:37;;;;;;;;;;;;;;;;;;5019484;28;20008;-70
2022/12/03 16:14:03;;;;;;;;;;;;;;;;;;5017142;28;19917;-68
2022/12/03 16:16:29;;;;;;;;;;;;;;;;;;5013669;28;19917;-70
2022/12/03 16:18:55;;;;;;;;;;;;;;;;;;5015378;28;19921;-71
2022/12/03 16:21:21;;;;;;;;;;;;;;;;;;5015887;28;19960;-71
2022/12/03 16:23:47;;;;;;;;;;;;;;;;;;5019894;28;19960;-70
2022/12/03 16:26:12;;;;;;;;;;;;;;;;;;5016639;28;19917;-72
2022/12/03 16:28:38;;;;;;;;;;;;;;;;;;5018700;28;20281;-72
2022/12/03 16:31:04;;;;;;;;;;;;;;;;;;5022036;28;19951;-72
2022/12/03 16:33:30;;;;;;;;;;;;;;;;;;5013484;28;20239;-72
2022/12/03 16:35:56;;;;;;;;;;;;;;;;;;5009179;28;19959;-70
2022/12/03 16:38:22;;;;;;;;;;;;;;;;;;5009460;28;19931;-71
2022/12/03 16:40:48;;;;;;;;;;;;;;;;;;5012947;28;19928;-71
2022/12/03 16:43:14;;;;;;;;;;;;;;;;;;5009284;28;20712;-72
2022/12/03 16:48:21;;;;;;;;;;;;;;;;;;5020871;28;20355;-70
2022/12/03 16:50:47;;;;;;;;;;;;;;;;;;5024350;28;19994;-70
2022/12/03 16:53:13;;;;;;;;;;;;;;;;;;5022163;28;19909;-71
2022/12/03 16:55:39;;;;;;;;;;;;;;;;;;5023861;28;19924;-68
2022/12/03 16:58:04;;;;;;;;;;;;;;;;;;5012948;28;19921;-68
2022/12/03 17:00:30;;;;;;;;;;;;;;;;;;5009150;28;19910;-71
2022/12/03 17:02:56;;;;;;;;;;;;;;;;;;5012102;28;19921;-71
2022/12/03 17:05:22;;;;;;;;;;;;;;;;;;5024685;28;20002;-70
2022/12/03 17:07:48;;;;;;;;;;;;;;;;;;5024856;28;19998;-69
2022/12/03 17:10:14;;;;;;;;;;;;;;;;;;5021326;28;19917;-71